createdAt,value
2018-06-05T00:01:07.422Z,99.90
2018-06-05T00:03:35.594Z,99.90
2018-06-05T00:06:03.815Z,99.90
2018-06-05T00:08:32.045Z,99.90
2018-06-05T00:11:00.215Z,99.90
2018-06-05T00:13:28.366Z,99.90
2018-06-05T00:15:56.582Z,99.90
2018-06-05T00:18:24.866Z,99.90
2018-06-05T00:20:52.993Z,99.90
2018-06-05T00:23:21.289Z,99.90
2018-06-05T00:25:49.526Z,99.90
2018-06-05T00:28:17.757Z,99.90
2018-06-05T00:30:45.973Z,99.90
2018-06-05T00:33:14.212Z,99.90
2018-06-05T00:35:42.483Z,99.90
2018-06-05T00:38:10.674Z,99.90
2018-06-05T00:40:38.999Z,99.90
2018-06-05T00:43:07.238Z,99.90
2018-06-05T00:45:35.530Z,99.90
2018-06-05T00:48:03.808Z,99.90
2018-06-05T00:50:31.966Z,99.90
2018-06-05T00:53:00.191Z,99.90
2018-06-05T00:55:28.391Z,99.90
2018-06-05T00:57:56.671Z,99.90
2018-06-05T01:00:24.887Z,99.90
2018-06-05T01:02:53.065Z,99.90
2018-06-05T01:07:49.002Z,99.90
2018-06-05T01:12:45.004Z,99.90
2018-06-05T01:15:13.214Z,99.90
2018-06-05T01:17:41.469Z,99.90
2018-06-05T01:20:09.690Z,99.90
2018-06-05T01:22:37.902Z,99.90
2018-06-05T01:25:06.419Z,99.90
2018-06-05T01:27:34.586Z,99.90
2018-06-05T01:30:03.497Z,99.90
2018-06-05T01:32:31.728Z,99.90
2018-06-05T01:34:59.918Z,99.90
2018-06-05T01:37:28.105Z,99.90
2018-06-05T01:39:56.332Z,99.90
2018-06-05T01:42:24.599Z,99.90
2018-06-05T01:44:52.838Z,99.90
2018-06-05T01:47:21.165Z,99.90
2018-06-05T01:49:49.558Z,99.90
2018-06-05T01:52:17.736Z,99.90
2018-06-05T01:54:45.990Z,99.90
2018-06-05T01:57:14.262Z,99.90
2018-06-05T01:59:42.510Z,99.90
2018-06-05T02:02:10.790Z,99.90
2018-06-05T02:04:39.113Z,99.90
2018-06-05T02:07:07.367Z,99.90
2018-06-05T02:09:35.575Z,99.90
2018-06-05T02:12:03.843Z,99.90
2018-06-05T02:14:32.099Z,99.90
2018-06-05T02:17:00.339Z,99.90
2018-06-05T02:19:28.590Z,99.90
2018-06-05T02:21:56.817Z,99.90
2018-06-05T02:24:25.065Z,99.90
2018-06-05T02:26:53.319Z,99.90
2018-06-05T02:29:21.615Z,99.90
2018-06-05T02:31:49.875Z,99.90
2018-06-05T02:34:18.123Z,99.90
2018-06-05T02:36:46.398Z,99.90
2018-06-05T02:39:14.619Z,99.90
2018-06-05T02:41:42.906Z,99.90
2018-06-05T02:44:11.138Z,99.90
2018-06-05T02:46:39.417Z,99.90
2018-06-05T02:49:07.646Z,99.90
2018-06-05T02:51:35.826Z,99.90
2018-06-05T02:54:03.978Z,99.90
2018-06-05T02:56:32.203Z,99.90
2018-06-05T02:59:00.461Z,99.90
2018-06-05T03:01:28.790Z,99.90
2018-06-05T03:06:24.681Z,99.90
2018-06-05T03:08:52.912Z,99.90
2018-06-05T03:11:21.062Z,99.90
2018-06-05T03:13:49.297Z,99.90
2018-06-05T03:16:17.449Z,99.90
2018-06-05T03:18:45.662Z,99.90
2018-06-05T03:21:13.815Z,99.90
2018-06-05T03:23:41.987Z,99.90
2018-06-05T03:26:10.214Z,99.90
2018-06-05T03:28:38.379Z,99.90
2018-06-05T03:31:06.588Z,99.90
2018-06-05T03:33:34.770Z,99.90
2018-06-05T03:36:03.056Z,99.90
2018-06-05T03:38:31.352Z,99.90
2018-06-05T03:40:59.492Z,99.90
2018-06-05T03:43:27.686Z,99.90
2018-06-05T03:45:55.980Z,99.90
2018-06-05T03:48:24.146Z,99.90
2018-06-05T03:50:52.400Z,99.90
2018-06-05T03:53:20.644Z,99.90
2018-06-05T03:55:50.090Z,99.90
2018-06-05T03:58:18.279Z,99.90
2018-06-05T04:00:46.467Z,99.90
2018-06-05T04:03:14.705Z,99.90
2018-06-05T04:05:42.924Z,99.90
2018-06-05T04:08:11.162Z,99.90
2018-06-05T04:10:39.418Z,99.90
2018-06-05T04:13:07.706Z,99.90
2018-06-05T04:15:35.982Z,99.90
2018-06-05T04:18:04.326Z,99.90
2018-06-05T04:20:32.614Z,99.90
2018-06-05T04:23:00.886Z,99.90
2018-06-05T04:25:29.093Z,99.90
2018-06-05T04:27:57.290Z,99.90
2018-06-05T04:30:25.466Z,99.90
2018-06-05T04:32:53.703Z,99.90
2018-06-05T04:35:21.974Z,99.90
2018-06-05T04:37:50.214Z,99.90
2018-06-05T04:40:18.432Z,99.90
2018-06-05T04:42:46.696Z,99.90
2018-06-05T04:45:14.972Z,99.90
2018-06-05T04:47:43.185Z,99.90
2018-06-05T04:50:11.381Z,99.90
2018-06-05T04:52:39.651Z,99.90
2018-06-05T04:55:07.927Z,99.90
2018-06-05T04:57:36.152Z,99.90
2018-06-05T05:00:04.475Z,99.90
2018-06-05T05:02:32.658Z,99.90
2018-06-05T05:05:00.950Z,99.90
2018-06-05T05:07:29.212Z,99.90
2018-06-05T05:09:57.307Z,99.90
2018-06-05T05:12:25.410Z,99.90
2018-06-05T05:14:53.508Z,99.90
2018-06-05T05:17:21.605Z,99.90
2018-06-05T05:19:49.646Z,99.90
2018-06-05T05:22:17.738Z,99.90
2018-06-05T05:24:45.809Z,99.90
2018-06-05T05:27:13.877Z,99.90
2018-06-05T05:29:41.946Z,99.90
2018-06-05T05:32:10.001Z,99.90
2018-06-05T05:34:38.087Z,99.90
2018-06-05T05:37:06.197Z,99.90
2018-06-05T05:39:34.258Z,99.90
2018-06-05T05:42:02.375Z,99.90
2018-06-05T05:44:30.432Z,99.90
2018-06-05T05:46:58.519Z,99.90
2018-06-05T05:49:26.598Z,99.90
2018-06-05T05:51:54.661Z,99.90
2018-06-05T05:54:22.770Z,99.90
2018-06-05T05:56:50.806Z,99.90
2018-06-05T05:59:18.900Z,99.90
2018-06-05T06:01:46.981Z,99.90
2018-06-05T06:04:15.025Z,99.90
2018-06-05T06:06:43.102Z,99.90
2018-06-05T06:09:11.213Z,99.90
2018-06-05T06:11:39.283Z,99.90
2018-06-05T06:14:07.449Z,99.90
2018-06-05T06:16:35.515Z,99.90
2018-06-05T06:19:03.637Z,99.90
2018-06-05T06:21:31.729Z,99.90
2018-06-05T06:23:59.843Z,99.90
2018-06-05T06:26:27.913Z,99.90
2018-06-05T06:28:55.968Z,99.90
2018-06-05T06:31:24.039Z,99.90
2018-06-05T06:33:52.096Z,99.90
2018-06-05T06:36:20.201Z,99.90
2018-06-05T06:38:48.285Z,99.90
2018-06-05T06:41:16.357Z,99.90
2018-06-05T06:43:44.474Z,99.90
2018-06-05T06:46:12.542Z,99.90
2018-06-05T06:48:47.225Z,99.90
2018-06-05T06:51:15.311Z,99.90
2018-06-05T06:53:43.377Z,99.90
2018-06-05T06:56:11.465Z,99.90
2018-06-05T06:58:39.518Z,99.90
2018-06-05T07:01:07.630Z,99.90
2018-06-05T07:03:35.738Z,99.90
2018-06-05T07:06:04.886Z,99.90
2018-06-05T07:08:32.990Z,99.90
2018-06-05T07:11:01.383Z,99.90
2018-06-05T07:13:29.472Z,99.90
2018-06-05T07:15:57.521Z,99.90
2018-06-05T07:18:25.596Z,99.90
2018-06-05T07:20:53.637Z,99.90
2018-06-05T07:23:21.740Z,99.90
2018-06-05T07:25:49.816Z,99.90
2018-06-05T07:28:17.862Z,99.90
2018-06-05T07:30:45.950Z,99.90
2018-06-05T07:33:14.059Z,99.90
2018-06-05T07:35:42.182Z,99.90
2018-06-05T07:38:10.228Z,99.90
2018-06-05T07:40:38.498Z,99.90
2018-06-05T07:43:06.573Z,99.90
2018-06-05T07:45:34.685Z,99.90
2018-06-05T07:48:02.783Z,99.90
2018-06-05T07:50:30.821Z,99.90
2018-06-05T07:52:58.891Z,99.90
2018-06-05T07:55:27.048Z,99.90
2018-06-05T07:57:55.124Z,99.90
2018-06-05T08:00:23.247Z,99.90
2018-06-05T08:02:51.408Z,99.90
2018-06-05T08:05:19.538Z,99.90
2018-06-05T08:07:47.578Z,99.90
2018-06-05T08:10:15.645Z,99.90
2018-06-05T08:12:43.765Z,99.90
2018-06-05T08:15:11.891Z,99.90
2018-06-05T08:17:39.973Z,99.90
2018-06-05T08:20:08.037Z,99.90
2018-06-05T08:22:52.901Z,99.90
2018-06-05T08:25:21.045Z,99.90
2018-06-05T08:27:49.149Z,99.90
2018-06-05T08:30:17.241Z,99.90
2018-06-05T08:32:45.300Z,99.90
2018-06-05T08:35:13.420Z,99.90
2018-06-05T08:37:41.543Z,99.90
2018-06-05T08:40:09.590Z,99.90
2018-06-05T08:42:37.719Z,99.90
2018-06-05T08:45:05.817Z,99.90
2018-06-05T08:47:33.980Z,99.90
2018-06-05T08:50:02.093Z,99.90
2018-06-05T08:52:30.146Z,99.90
2018-06-05T08:54:58.209Z,99.90
2018-06-05T08:57:26.244Z,99.90
2018-06-05T08:59:54.364Z,99.90
2018-06-05T09:02:22.948Z,99.90
2018-06-05T09:04:50.997Z,99.90
2018-06-05T09:07:19.073Z,99.90
2018-06-05T09:09:47.288Z,99.90
2018-06-05T09:12:15.896Z,99.90
2018-06-05T09:14:44.019Z,99.90
2018-06-05T09:17:12.072Z,99.90
2018-06-05T09:19:40.130Z,99.20
2018-06-05T09:22:08.194Z,99.90
2018-06-05T09:24:36.298Z,99.90
2018-06-05T09:27:04.437Z,98.70
2018-06-05T09:29:32.486Z,97.70
2018-06-05T09:32:00.549Z,98.60
2018-06-05T09:36:56.221Z,98.00
2018-06-05T09:39:24.285Z,97.80
2018-06-05T09:41:52.350Z,97.90
2018-06-05T09:44:20.445Z,98.40
2018-06-05T09:46:48.493Z,96.10
2018-06-05T09:49:16.605Z,99.10
2018-06-05T09:51:44.678Z,95.00
2018-06-05T09:54:12.717Z,95.90
2018-06-05T09:56:54.419Z,95.80
2018-06-05T09:59:22.489Z,94.30
2018-06-05T10:01:50.571Z,93.70
2018-06-05T10:04:18.713Z,93.30
2018-06-05T10:06:46.789Z,94.50
2018-06-05T10:09:14.895Z,92.30
2018-06-05T10:11:42.933Z,93.30
2018-06-05T10:14:11.029Z,93.00
2018-06-05T10:16:39.084Z,92.70
2018-06-05T10:19:07.181Z,91.30
2018-06-05T10:21:35.268Z,94.10
2018-06-05T10:24:03.326Z,91.50
2018-06-05T10:26:31.450Z,91.10
2018-06-05T10:28:59.509Z,89.90
2018-06-05T10:31:33.040Z,89.10
2018-06-05T10:34:01.145Z,91.30
2018-06-05T10:36:29.201Z,89.10
2018-06-05T10:38:57.281Z,90.50
2018-06-05T10:41:25.421Z,89.90
2018-06-05T10:43:53.976Z,88.00
2018-06-05T10:46:28.378Z,88.60
2018-06-05T10:49:02.033Z,85.50
2018-06-05T10:51:30.760Z,82.80
2018-06-05T10:54:00.958Z,84.50
2018-06-05T10:56:29.065Z,86.50
2018-06-05T10:58:57.109Z,85.80
2018-06-05T11:01:25.199Z,84.20
2018-06-05T11:03:53.290Z,86.90
2018-06-05T11:06:21.457Z,85.60
2018-06-05T11:08:49.618Z,83.70
2018-06-05T11:11:17.936Z,81.40
2018-06-05T11:13:47.215Z,78.90
2018-06-05T11:16:15.347Z,79.20
2018-06-05T11:18:48.863Z,77.40
2018-06-05T11:21:16.975Z,79.00
2018-06-05T11:23:45.147Z,77.80
2018-06-05T11:26:13.265Z,73.80
2018-06-05T11:28:44.171Z,75.30
2018-06-05T11:31:12.345Z,72.40
2018-06-05T11:33:40.461Z,72.20
2018-06-05T11:36:08.543Z,73.10
2018-06-05T11:38:36.635Z,73.50
2018-06-05T11:41:11.086Z,74.50
2018-06-05T11:43:40.519Z,72.60
2018-06-05T11:46:11.984Z,71.10
2018-06-05T11:48:40.286Z,75.50
2018-06-05T11:51:08.426Z,71.20
2018-06-05T11:56:10.882Z,71.70
2018-06-05T11:58:38.918Z,69.60
2018-06-05T12:01:12.517Z,71.10
2018-06-05T12:03:40.648Z,71.70
2018-06-05T12:06:08.691Z,69.10
2018-06-05T12:08:36.797Z,71.70
2018-06-05T12:11:04.893Z,68.80
2018-06-05T12:13:32.960Z,68.90
2018-06-05T12:16:01.030Z,70.80
2018-06-05T12:18:29.115Z,69.40
2018-06-05T12:20:57.184Z,69.00
2018-06-05T12:23:25.276Z,68.30
2018-06-05T12:25:53.442Z,68.50
2018-06-05T12:28:21.541Z,71.20
2018-06-05T12:30:49.641Z,69.50
2018-06-05T12:33:17.657Z,67.60
2018-06-05T12:35:45.713Z,67.80
2018-06-05T12:38:13.794Z,67.50
2018-06-05T12:40:41.805Z,66.90
2018-06-05T12:43:10.190Z,67.60
2018-06-05T12:45:38.209Z,65.90
2018-06-05T12:48:06.317Z,66.50
2018-06-05T12:50:35.462Z,66.30
2018-06-05T12:53:03.647Z,67.00
2018-06-05T12:55:31.881Z,66.10
2018-06-05T12:58:01.055Z,66.60
2018-06-05T13:00:29.474Z,64.30
2018-06-05T13:02:57.795Z,66.30
2018-06-05T13:05:26.122Z,64.80
2018-06-05T13:07:54.594Z,64.20
2018-06-05T13:10:22.894Z,65.10
2018-06-05T13:12:51.189Z,65.30
2018-06-05T13:15:19.499Z,62.00
2018-06-05T13:17:53.263Z,63.60
2018-06-05T13:20:21.507Z,64.60
2018-06-05T13:22:55.149Z,62.70
2018-06-05T13:25:23.259Z,64.20
2018-06-05T13:27:51.548Z,60.60
2018-06-05T13:30:19.812Z,63.00
2018-06-05T13:32:48.042Z,61.70
2018-06-05T13:35:16.225Z,62.00
2018-06-05T13:37:44.623Z,63.40
2018-06-05T13:40:12.912Z,63.00
2018-06-05T13:42:41.117Z,59.10
2018-06-05T13:45:09.415Z,59.80
2018-06-05T13:47:37.655Z,59.40
2018-06-05T13:50:06.095Z,59.90
2018-06-05T13:52:34.351Z,60.10
2018-06-05T13:55:02.678Z,58.90
2018-06-05T13:57:30.881Z,59.70
2018-06-05T13:59:59.150Z,61.90
2018-06-05T14:02:27.345Z,61.00
2018-06-05T14:04:55.491Z,61.60
2018-06-05T14:07:23.735Z,60.50
2018-06-05T14:09:51.918Z,60.50
2018-06-05T14:12:25.463Z,61.30
2018-06-05T14:14:53.635Z,59.70
2018-06-05T14:17:21.841Z,57.70
2018-06-05T14:19:50.172Z,58.80
2018-06-05T14:22:18.386Z,57.80
2018-06-05T14:24:46.579Z,60.20
2018-06-05T14:27:14.770Z,57.80
2018-06-05T14:29:44.602Z,57.20
2018-06-05T14:32:13.054Z,56.70
2018-06-05T14:34:41.281Z,57.20
2018-06-05T14:37:09.461Z,56.40
2018-06-05T14:39:37.702Z,55.50
2018-06-05T14:42:05.938Z,55.00
2018-06-05T14:44:34.142Z,55.60
2018-06-05T14:47:02.355Z,57.00
2018-06-05T14:49:30.579Z,56.00
2018-06-05T14:51:58.866Z,55.50
2018-06-05T14:54:27.091Z,55.10
2018-06-05T14:56:55.293Z,54.70
2018-06-05T14:59:23.498Z,55.00
2018-06-05T15:01:51.770Z,56.20
2018-06-05T15:04:19.975Z,54.40
2018-06-05T15:06:48.134Z,55.20
2018-06-05T15:09:16.346Z,54.70
2018-06-05T15:11:44.569Z,54.60
2018-06-05T15:14:12.845Z,54.60
2018-06-05T15:16:41.034Z,54.90
2018-06-05T15:19:09.232Z,53.60
2018-06-05T15:24:05.334Z,53.70
2018-06-05T15:26:33.691Z,53.40
2018-06-05T15:29:01.880Z,53.90
2018-06-05T15:31:30.075Z,53.50
2018-06-05T15:33:58.299Z,53.80
2018-06-05T15:36:26.543Z,54.90
2018-06-05T15:38:54.779Z,55.40
2018-06-05T15:41:23.084Z,54.00
2018-06-05T15:43:51.728Z,53.90
2018-06-05T15:46:20.039Z,52.20
2018-06-05T15:48:48.264Z,53.30
2018-06-05T15:51:16.522Z,53.70
2018-06-05T15:53:44.728Z,53.80
2018-06-05T15:56:12.950Z,53.70
2018-06-05T15:58:41.290Z,53.00
2018-06-05T16:01:09.493Z,53.30
2018-06-05T16:03:37.658Z,53.70
2018-06-05T16:06:05.971Z,53.50
2018-06-05T16:08:34.259Z,53.60
2018-06-05T16:11:02.505Z,54.20
2018-06-05T16:13:30.786Z,54.90
2018-06-05T16:15:59.090Z,54.60
2018-06-05T16:18:27.291Z,54.50
2018-06-05T16:20:55.461Z,54.00
2018-06-05T16:23:23.698Z,53.80
2018-06-05T16:25:51.937Z,53.80
2018-06-05T16:28:20.255Z,54.10
2018-06-05T16:30:48.487Z,54.60
2018-06-05T16:33:16.715Z,54.00
2018-06-05T16:35:44.960Z,53.50
2018-06-05T16:38:13.188Z,53.10
2018-06-05T16:40:41.486Z,53.30
2018-06-05T16:43:09.682Z,52.00
2018-06-05T16:45:37.890Z,52.00
2018-06-05T16:48:06.124Z,52.20
2018-06-05T16:50:34.331Z,52.00
2018-06-05T16:53:02.643Z,52.70
2018-06-05T16:55:30.862Z,53.60
2018-06-05T16:57:59.066Z,53.70
2018-06-05T17:00:27.329Z,53.60
2018-06-05T17:02:55.513Z,53.50
2018-06-05T17:05:23.832Z,53.10
2018-06-05T17:07:52.103Z,53.80
2018-06-05T17:10:21.376Z,54.10
2018-06-05T17:12:49.645Z,54.40
2018-06-05T17:15:17.985Z,54.40
2018-06-05T17:17:46.286Z,54.40
2018-06-05T17:20:17.319Z,54.70
2018-06-05T17:22:45.487Z,54.80
2018-06-05T17:27:41.493Z,54.50
2018-06-05T17:30:09.787Z,54.40
2018-06-05T17:32:38.118Z,54.40
2018-06-05T17:35:06.437Z,55.10
2018-06-05T17:37:34.730Z,56.10
2018-06-05T17:40:02.959Z,56.60
2018-06-05T17:42:31.464Z,56.60
2018-06-05T17:44:59.619Z,56.60
2018-06-05T17:47:27.867Z,57.20
2018-06-05T17:49:56.115Z,57.70
2018-06-05T17:52:24.290Z,57.40
2018-06-05T17:54:52.523Z,58.30
2018-06-05T17:57:20.700Z,58.60
2018-06-05T17:59:48.922Z,57.60
2018-06-05T18:02:17.199Z,58.50
2018-06-05T18:07:13.306Z,59.10
2018-06-05T18:09:41.593Z,58.70
2018-06-05T18:12:09.836Z,59.00
2018-06-05T18:14:38.115Z,59.20
2018-06-05T18:17:06.260Z,60.00
2018-06-05T18:19:34.434Z,59.90
2018-06-05T18:22:02.667Z,61.60
2018-06-05T18:24:30.900Z,61.60
2018-06-05T18:26:59.081Z,62.20
2018-06-05T18:29:27.350Z,62.40
2018-06-05T18:31:55.602Z,61.10
2018-06-05T18:34:24.127Z,62.90
2018-06-05T18:36:52.365Z,62.70
2018-06-05T18:39:20.602Z,63.00
2018-06-05T18:41:48.890Z,62.50
2018-06-05T18:44:17.277Z,64.70
2018-06-05T18:46:45.495Z,65.20
2018-06-05T18:49:13.847Z,65.20
2018-06-05T18:51:42.082Z,65.20
2018-06-05T18:54:10.289Z,65.30
2018-06-05T18:56:38.563Z,65.90
2018-06-05T18:59:06.843Z,66.20
2018-06-05T19:01:37.073Z,65.40
2018-06-05T19:04:05.365Z,64.40
2018-06-05T19:06:33.531Z,65.30
2018-06-05T19:09:01.708Z,66.20
2018-06-05T19:11:29.889Z,65.00
2018-06-05T19:13:58.176Z,66.00
2018-06-05T19:16:26.359Z,65.60
2018-06-05T19:18:54.587Z,65.30
2018-06-05T19:21:22.770Z,66.60
2018-06-05T19:23:50.974Z,67.20
2018-06-05T19:26:19.208Z,66.10
2018-06-05T19:28:47.487Z,65.30
2018-06-05T19:31:15.689Z,68.90
2018-06-05T19:33:43.870Z,68.30
2018-06-05T19:36:12.022Z,68.90
2018-06-05T19:38:40.249Z,66.40
2018-06-05T19:41:08.553Z,68.00
2018-06-05T19:43:36.751Z,69.30
2018-06-05T19:46:05.016Z,70.10
2018-06-05T19:48:33.180Z,69.60
2018-06-05T19:51:01.392Z,68.90
2018-06-05T19:53:29.671Z,71.00
2018-06-05T19:56:01.279Z,68.70
2018-06-05T19:58:29.550Z,71.70
2018-06-05T20:00:57.726Z,68.60
2018-06-05T20:03:25.929Z,69.80
2018-06-05T20:05:54.140Z,70.80
2018-06-05T20:08:22.304Z,74.20
2018-06-05T20:10:50.551Z,72.10
2018-06-05T20:13:18.751Z,73.30
2018-06-05T20:15:46.926Z,73.90
2018-06-05T20:18:15.118Z,72.80
2018-06-05T20:20:43.347Z,73.80
2018-06-05T20:23:11.558Z,75.10
2018-06-05T20:25:39.749Z,75.40
2018-06-05T20:28:08.060Z,73.40
2018-06-05T20:30:36.204Z,76.20
2018-06-05T20:33:04.397Z,77.50
2018-06-05T20:35:32.626Z,75.80
2018-06-05T20:38:00.883Z,74.00
2018-06-05T20:40:29.149Z,76.60
2018-06-05T20:42:57.458Z,76.40
2018-06-05T20:45:25.674Z,76.50
2018-06-05T20:47:53.870Z,77.50
2018-06-05T20:50:22.028Z,78.80
2018-06-05T20:52:50.255Z,78.20
2018-06-05T20:55:18.471Z,78.60
2018-06-05T20:57:46.650Z,77.70
2018-06-05T21:00:14.797Z,79.10
2018-06-05T21:02:42.879Z,77.50
2018-06-05T21:05:10.998Z,81.10
2018-06-05T21:07:39.069Z,80.00
2018-06-05T21:10:07.206Z,81.90
2018-06-05T21:12:35.281Z,81.00
2018-06-05T21:15:03.346Z,82.50
2018-06-05T21:17:31.419Z,81.90
2018-06-05T21:19:59.521Z,81.40
2018-06-05T21:22:27.590Z,84.70
2018-06-05T21:24:55.666Z,84.30
2018-06-05T21:29:51.329Z,87.40
2018-06-05T21:32:19.369Z,86.00
2018-06-05T21:34:47.438Z,87.50
2018-06-05T21:37:15.491Z,87.60
2018-06-05T21:39:43.533Z,88.90
2018-06-05T21:42:11.669Z,88.60
2018-06-05T21:44:39.785Z,88.90
2018-06-05T21:47:07.881Z,89.10
2018-06-05T21:49:35.951Z,90.10
2018-06-05T21:52:04.019Z,91.20
2018-06-05T21:54:38.529Z,91.60
2018-06-05T21:57:06.566Z,92.60
2018-06-05T21:59:34.639Z,91.80
2018-06-05T22:02:02.732Z,92.10
2018-06-05T22:04:30.800Z,92.20
2018-06-05T22:06:58.906Z,94.30
2018-06-05T22:09:26.935Z,93.80
2018-06-05T22:11:55.030Z,94.40
2018-06-05T22:14:23.106Z,95.30
2018-06-05T22:16:51.234Z,96.00
2018-06-05T22:19:19.310Z,96.20
2018-06-05T22:21:47.349Z,96.20
2018-06-05T22:24:15.437Z,97.50
2018-06-05T22:26:43.606Z,98.00
2018-06-05T22:29:11.828Z,98.60
2018-06-05T22:31:40.094Z,98.40
2018-06-05T22:34:08.325Z,99.90
2018-06-05T22:36:36.554Z,99.40
2018-06-05T22:39:06.233Z,99.90
2018-06-05T22:41:34.449Z,99.90
2018-06-05T22:44:02.723Z,99.90
2018-06-05T22:46:30.969Z,99.90
2018-06-05T22:48:59.242Z,99.90
2018-06-05T22:51:27.483Z,99.90
2018-06-05T22:53:55.755Z,99.90
2018-06-05T22:56:23.971Z,99.90
2018-06-05T22:58:52.191Z,99.90
2018-06-05T23:01:20.884Z,99.90
2018-06-05T23:03:49.046Z,99.90
2018-06-05T23:06:17.287Z,99.90
2018-06-05T23:08:45.595Z,99.90
2018-06-05T23:11:13.807Z,99.90
2018-06-05T23:13:42.047Z,99.90
2018-06-05T23:16:10.426Z,99.90
2018-06-05T23:18:38.668Z,99.90
2018-06-05T23:21:06.948Z,99.90
2018-06-05T23:23:35.176Z,99.90
2018-06-05T23:28:31.144Z,99.90
2018-06-05T23:30:59.305Z,99.90
2018-06-05T23:33:27.583Z,99.90
2018-06-05T23:35:55.791Z,99.90
2018-06-05T23:38:24.027Z,99.90
2018-06-05T23:40:52.599Z,99.90
2018-06-05T23:43:20.864Z,99.90
2018-06-05T23:45:49.138Z,99.90
2018-06-05T23:48:17.409Z,99.90
2018-06-05T23:50:45.680Z,99.90
2018-06-05T23:53:13.919Z,99.90
2018-06-05T23:55:42.111Z,99.90
2018-06-05T23:58:10.408Z,99.90
